AirNav   Air Wisconsin pilot careers
 
 1203 users online  

8C2 Sully Municipal Airport
Sully, Iowa, USA

GOING TO SULLY?


FAA INFORMATION EFFECTIVE 24 MAY 2018

Location

FAA Identifier: 8C2
Lat/Long: 41-34-26.7600N / 092-50-47.7600W
41-34.446000N / 092-50.796000W
41.5741000 / -92.8466000
(estimated)
Elevation: 922 ft. / 281.0 m (surveyed)
Variation: 03E (1985)
Time zone: UTC -5 (UTC -6 during Standard Time)
Zip code: 50251

Airport Operations

Airport use: Open to the public
Activation date: 12/1969
Control tower: no
ARTCC: MINNEAPOLIS CENTER
FSS: FORT DODGE FLIGHT SERVICE STATION
NOTAMs facility: FOD (NOTAM-D service available)
Attendance: UNATNDD
Wind indicator: yes
Segmented circle: no

Airport Communications

CTAF: 122.9
WX AWOS-3 at GGI (10 nm NE): 120.725 (641-236-9720)
WX AWOS-3 at TNU (10 nm NW): 132.275 (641-791-3302)
WX AWOS-3 at PEA (11 nm SW): 118.875 (641-628-3459)

Nearby radio navigation aids

VOR radial/distance  VOR name  Freq  Var
TNUr134/17.2NEWTON VOR/DME112.5003E
JWJr174/32.4ELMWOOD VOR/DME109.4001E
DSMr070/37.0DES MOINES VORTAC117.5007E

 
NDB name  Hdg/Dist  Freq  Var  ID
PELLA021/11.125702EPEA .--. . .-

Airport Services

Airframe service: NONE
Powerplant service: NONE
Bottled oxygen: NONE
Bulk oxygen: NONE

Runway Information

Runway 8/26

Dimensions: 2130 x 120 ft. / 649 x 37 m
Surface: turf, in good condition
Runway edge markings: 08/26 THRS AND EDGES MKD WITH CONES. RY 26 DSPLCD THR MKD WITH CONES.
RUNWAY 8  RUNWAY 26
Traffic pattern: leftleft
Displaced threshold: 195 ft.915 ft.
Obstructions: 58 ft. tree, 1002 ft. from runway, 133 ft. right of centerline, 17:1 slope to clear
RY 08 APCH SLOPE 20:1 TO DSPLCD THLD.
58 ft. tree, 255 ft. from runway, 120 ft. right of centerline, 4:1 slope to clear
RWY 26 APCH SLOPE 20:1 TO DSPLCD THLD.

Airport Ownership and Management from official FAA records

Ownership: Publicly-owned
Owner: CITY OF SULLY
318 - 6TH AVE
SULLY, IA 50251
Phone 641-594-3493
Manager: SHAWN NEEDHAM
P O BOX 247
SULLY, IA 50251
Phone 641-594-3734

Airport Operational Statistics

Aircraft operations: avg 50/month *
100% transient general aviation
* for 12-month period ending 20 July 2016

Additional Remarks

CLOSED WINTER MONTHS DUE TO SNOW.

Instrument Procedures

There are no published instrument procedures at 8C2.

Some nearby airports with instrument procedures:

KGGI - Grinnell Regional Airport (10 nm NE)
KTNU - Newton Municipal Airport-Earl Johnson Field (10 nm NW)
KPEA - Pella Municipal Airport (11 nm SW)
KOXV - Knoxville Municipal Airport (20 nm SW)
KOOA - Oskaloosa Municipal Airport (26 nm SE)
 
Loc | Ops | Rwys | IFR | FBO | Links
Com | Nav | Svcs | Stats | Notes

AirNav Hotels Sweepstakes
 
Area around 8C2 (Sully Municipal Airport)
 
Road maps at: MapQuest Bing Google
 
Aerial photo
WARNING: Photo may not be current or correct
Aerial photo of 8C2 (Sully Municipal Airport)
Photo taken 01-Sep-2004
from the east looking west

Do you have a better or more recent aerial photo of Sully Municipal Airport that you would like to share? If so, please send us your photo.

 
Sectional chart

 
Airport distance calculator
Flying to Sully Municipal Airport? Find the distance to fly.

From to 8C2

Sunrise and sunset
Times for 25-May-2018
 Local
(UTC-5)
 Zulu
(UTC)
Morning civil twilight05:1210:12
Sunrise05:4510:45
Sunset20:3201:32
Evening civil twilight21:0502:05

Current date and time
Zulu (UTC)  25-May-2018 20:47:12
Local (UTC-5)  25-May-2018 15:47:12
 
METAR
KTNU 
9nm NW 
252035Z AUTO 20008G17KT 10SM CLR 29/20 A2978 RMK AO2
KGGI 
10nm NE 
252035Z AUTO 23007KT 10SM SCT038 29/20 A2980 RMK AO2 T02850197
KPEA 
11nm SW 
252035Z AUTO 24007KT 10SM CLR 28/20 A2980 RMK AO2 T02810198
TAF
KOTM 
34nm SE 
251728Z 2518/2618 19009KT P6SM SKC FM260200 VRB05KT P6SM BKN100
KDSM 
37nm W 
251728Z 2518/2618 19009G15KT P6SM SCT200 FM260100 VRB05KT P6SM FEW110
NOTAMs
Click for the latest NOTAMs
NOTAMs are issued by the DoD/FAA and will open in a separate window not controlled by AirNav.

 

 
 

Would you like to see your business listed on this page?

 If your business provides an interesting product or service to pilots, flight crews, aircraft, or users of the Sully Municipal Airport, you should consider listing it here.  To start the listing process, click on the button below
 
Add a business
 

Other Pages about Sully Municipal Airport

Page from the Iowa Airport Directory
 
Update a link
 
Copyright © AirNav, LLC. All rights reserved. Privacy Policy  Contact